createdAt,value
2022-09-07T00:00:00.253Z,57.90
2022-09-07T00:03:07.972Z,58.00
2022-09-07T00:06:15.454Z,58.10
2022-09-07T00:09:20.673Z,58.20
2022-09-07T00:12:25.607Z,58.40
2022-09-07T00:15:31.220Z,58.60
2022-09-07T00:18:42.482Z,58.70
2022-09-07T00:21:50.715Z,59.60
2022-09-07T00:24:55.727Z,59.20
2022-09-07T00:28:00.634Z,59.50
2022-09-07T00:31:06.044Z,59.70
2022-09-07T00:34:13.641Z,60.10
2022-09-07T00:37:18.567Z,60.50
2022-09-07T00:40:23.498Z,60.80
2022-09-07T00:43:37.349Z,61.20
2022-09-07T00:46:43.471Z,61.90
2022-09-07T00:49:55.346Z,61.70
2022-09-07T00:53:04.764Z,62.40
2022-09-07T00:56:10.490Z,62.50
2022-09-07T00:59:18.875Z,62.70
2022-09-07T01:02:24.391Z,63.00
2022-09-07T01:05:35.560Z,63.10
2022-09-07T01:08:41.589Z,63.50
2022-09-07T01:11:51.067Z,63.50
2022-09-07T01:14:57.226Z,63.70
2022-09-07T01:18:09.886Z,64.00
2022-09-07T01:21:45.647Z,64.30
2022-09-07T01:25:04.942Z,65.00
2022-09-07T01:28:18.595Z,64.70
2022-09-07T01:31:28.606Z,64.90
2022-09-07T01:34:34.667Z,64.90
2022-09-07T01:37:45.826Z,65.00
2022-09-07T01:40:56.747Z,65.30
2022-09-07T01:44:08.465Z,65.50
2022-09-07T01:47:18.171Z,65.70
2022-09-07T01:50:26.362Z,65.80
2022-09-07T01:53:36.697Z,65.90
2022-09-07T01:56:45.338Z,66.10
2022-09-07T02:00:00.258Z,66.30
2022-09-07T02:03:09.903Z,66.60
2022-09-07T02:06:18.403Z,66.60
2022-09-07T02:09:28.943Z,66.70
2022-09-07T02:12:37.702Z,66.80
2022-09-07T02:15:53.557Z,67.00
2022-09-07T02:19:01.649Z,67.40
2022-09-07T02:22:11.442Z,67.20
2022-09-07T02:25:22.222Z,67.40
2022-09-07T02:28:31.118Z,67.50
2022-09-07T02:31:38.990Z,67.70
2022-09-07T02:34:44.004Z,67.90
2022-09-07T02:37:49.985Z,68.00
2022-09-07T02:40:56.068Z,68.10
2022-09-07T02:44:01.618Z,68.20
2022-09-07T02:47:23.181Z,68.30
2022-09-07T02:50:50.247Z,68.80
2022-09-07T02:54:20.871Z,68.90
2022-09-07T02:57:35.140Z,68.90
2022-09-07T03:00:43.197Z,68.70
2022-09-07T03:03:59.002Z,68.30
2022-09-07T03:07:11.445Z,68.50
2022-09-07T03:10:18.112Z,68.70
2022-09-07T03:13:24.526Z,68.70
2022-09-07T03:16:29.492Z,69.50
2022-09-07T03:19:37.074Z,69.00
2022-09-07T03:22:42.378Z,69.20
2022-09-07T03:25:47.370Z,69.30
2022-09-07T03:28:52.289Z,69.40
2022-09-07T03:31:57.326Z,69.50
2022-09-07T03:35:05.706Z,69.50
2022-09-07T03:38:10.713Z,69.80
2022-09-07T03:41:15.660Z,69.70
2022-09-07T03:44:20.652Z,69.80
2022-09-07T03:47:25.646Z,69.90
2022-09-07T03:50:33.186Z,70.00
2022-09-07T03:53:40.013Z,70.20
2022-09-07T03:56:44.915Z,70.20
2022-09-07T03:59:49.953Z,70.20
2022-09-07T04:02:54.928Z,70.30
2022-09-07T04:06:04.463Z,70.40
2022-09-07T04:09:14.204Z,70.70
2022-09-07T04:12:19.127Z,70.70
2022-09-07T04:15:24.051Z,70.60
2022-09-07T04:18:29.313Z,70.70
2022-09-07T04:21:37.321Z,70.80
2022-09-07T04:24:42.276Z,71.00
2022-09-07T04:27:47.711Z,70.90
2022-09-07T04:30:52.725Z,71.00
2022-09-07T04:33:58.386Z,71.10
2022-09-07T04:37:06.935Z,71.20
2022-09-07T04:40:13.167Z,72.10
2022-09-07T04:43:18.123Z,71.30
2022-09-07T04:46:24.626Z,71.30
2022-09-07T04:49:29.578Z,71.50
2022-09-07T04:52:37.106Z,71.50
2022-09-07T04:55:42.062Z,71.70
2022-09-07T04:58:47.654Z,71.70
2022-09-07T05:01:52.653Z,71.80
2022-09-07T05:05:02.481Z,71.80
2022-09-07T05:08:10.340Z,71.80
2022-09-07T05:11:16.429Z,71.90
2022-09-07T05:14:21.402Z,71.90
2022-09-07T05:17:26.510Z,72.00
2022-09-07T05:20:31.398Z,72.10
2022-09-07T05:23:38.910Z,72.10
2022-09-07T05:26:43.835Z,72.30
2022-09-07T05:30:05.096Z,72.30
2022-09-07T05:33:11.139Z,72.40
2022-09-07T05:36:16.133Z,72.50
2022-09-07T05:39:23.807Z,72.60
2022-09-07T05:42:28.740Z,72.70
2022-09-07T05:45:34.321Z,72.70
2022-09-07T05:48:39.354Z,72.80
2022-09-07T05:51:44.262Z,72.90
2022-09-07T05:54:54.361Z,72.90
2022-09-07T05:58:01.505Z,73.10
2022-09-07T06:01:08.976Z,73.10
2022-09-07T06:04:13.935Z,73.20
2022-09-07T06:07:22.170Z,73.20
2022-09-07T06:10:46.640Z,73.30
2022-09-07T06:13:52.053Z,73.50
2022-09-07T06:16:57.027Z,73.40
2022-09-07T06:20:02.014Z,73.40
2022-09-07T06:23:07.327Z,73.50
2022-09-07T06:26:16.414Z,73.60
2022-09-07T06:29:21.445Z,73.80
2022-09-07T06:35:57.025Z,73.90
2022-09-07T06:39:02.941Z,74.00
2022-09-07T06:42:10.601Z,74.00
2022-09-07T06:45:21.121Z,74.20
2022-09-07T06:48:26.307Z,74.20
2022-09-07T06:51:32.270Z,74.20
2022-09-07T06:58:04.686Z,74.40
2022-09-07T07:01:11.689Z,74.40
2022-09-07T07:04:17.031Z,74.50
2022-09-07T07:07:21.946Z,74.50
2022-09-07T07:10:26.932Z,74.50
2022-09-07T07:13:34.649Z,74.50
2022-09-07T07:16:39.693Z,74.70
2022-09-07T07:19:44.653Z,74.60
2022-09-07T07:22:52.957Z,74.70
2022-09-07T07:25:57.877Z,74.80
2022-09-07T07:29:05.446Z,74.70
2022-09-07T07:32:10.421Z,74.90
2022-09-07T07:35:16.115Z,74.80
2022-09-07T07:41:54.426Z,74.90
2022-09-07T07:48:29.297Z,75.10
2022-09-07T07:52:49.914Z,75.10
2022-09-07T07:54:59.482Z,75.10
2022-09-07T07:58:04.384Z,75.00
2022-09-07T08:01:14.930Z,75.10
2022-09-07T08:04:19.966Z,75.30
2022-09-07T08:07:24.917Z,75.20
2022-09-07T08:10:30.290Z,75.40
2022-09-07T08:13:35.417Z,75.30
2022-09-07T08:16:45.493Z,75.20
2022-09-07T08:19:51.098Z,75.30
2022-09-07T08:22:56.062Z,75.20
2022-09-07T08:26:01.546Z,75.20
2022-09-07T08:29:06.629Z,75.20
2022-09-07T08:32:14.288Z,75.20
2022-09-07T08:35:19.963Z,75.20
2022-09-07T08:38:25.089Z,75.10
2022-09-07T08:42:00.373Z,75.00
2022-09-07T08:45:08.921Z,75.20
2022-09-07T08:48:21.110Z,75.00
2022-09-07T08:51:35.609Z,75.00
2022-09-07T08:54:41.769Z,74.90
2022-09-07T08:57:53.373Z,74.80
2022-09-07T09:04:28.980Z,74.70
2022-09-07T09:07:40.865Z,74.60
2022-09-07T09:10:56.558Z,74.50
2022-09-07T09:14:07.418Z,74.50
2022-09-07T09:17:18.690Z,74.40
2022-09-07T09:20:33.577Z,74.20
2022-09-07T09:23:42.828Z,74.30
2022-09-07T09:26:53.246Z,74.20
2022-09-07T09:29:58.150Z,74.10
2022-09-07T09:33:18.082Z,74.00
2022-09-07T09:36:36.814Z,74.20
2022-09-07T09:39:44.412Z,74.10
2022-09-07T09:42:50.747Z,73.90
2022-09-07T09:46:13.950Z,74.00
2022-09-07T09:49:22.773Z,73.90
2022-09-07T09:52:38.159Z,73.90
2022-09-07T09:55:54.870Z,73.80
2022-09-07T10:06:08.861Z,73.40
2022-09-07T10:09:20.922Z,73.40
2022-09-07T10:12:32.121Z,73.40
2022-09-07T10:15:40.967Z,73.40
2022-09-07T10:18:58.741Z,73.30
2022-09-07T10:22:04.937Z,73.40
2022-09-07T10:25:32.026Z,73.20
2022-09-07T10:32:19.549Z,73.00
2022-09-07T10:35:29.701Z,73.00
2022-09-07T10:38:42.569Z,72.80
2022-09-07T10:41:57.297Z,72.60
2022-09-07T10:45:12.679Z,72.40
2022-09-07T10:48:22.542Z,72.20
2022-09-07T10:51:36.973Z,72.20
2022-09-07T10:54:48.554Z,72.10
2022-09-07T10:58:09.333Z,71.80
2022-09-07T11:01:21.812Z,71.70
2022-09-07T11:04:39.907Z,71.50
2022-09-07T11:07:59.798Z,71.20
2022-09-07T11:11:12.300Z,70.90
2022-09-07T11:14:25.005Z,70.50
2022-09-07T11:17:32.775Z,70.20
2022-09-07T11:20:42.099Z,69.80
2022-09-07T11:23:52.842Z,69.50
2022-09-07T11:27:03.142Z,69.10
2022-09-07T11:30:22.480Z,68.80
2022-09-07T11:33:31.388Z,68.40
2022-09-07T11:36:41.782Z,68.40
2022-09-07T11:39:50.964Z,68.30
2022-09-07T11:42:59.831Z,68.10
2022-09-07T11:46:13.017Z,67.90
2022-09-07T11:49:22.973Z,67.80
2022-09-07T11:52:36.657Z,67.60
2022-09-07T11:55:46.979Z,67.40
2022-09-07T11:59:16.491Z,67.40
2022-09-07T12:02:59.281Z,67.10
2022-09-07T12:06:42.725Z,66.80
2022-09-07T12:10:15.772Z,66.80
2022-09-07T12:13:46.426Z,66.70
2022-09-07T12:17:29.206Z,66.60
2022-09-07T12:20:46.681Z,66.50
2022-09-07T12:23:51.745Z,66.30
2022-09-07T12:26:58.668Z,66.40
2022-09-07T12:30:33.813Z,66.20
2022-09-07T12:33:40.354Z,66.10
2022-09-07T12:36:52.986Z,65.90
2022-09-07T12:40:27.927Z,65.70
2022-09-07T12:43:38.773Z,65.50
2022-09-07T12:47:02.644Z,65.40
2022-09-07T12:50:24.210Z,65.10
2022-09-07T12:53:42.179Z,65.00
2022-09-07T12:57:29.065Z,64.90
2022-09-07T13:00:20.678Z,64.60
2022-09-07T13:03:55.814Z,64.50
2022-09-07T13:07:27.619Z,64.20
2022-09-07T13:10:37.593Z,64.10
2022-09-07T13:17:42.428Z,63.90
2022-09-07T13:20:48.513Z,63.60
2022-09-07T13:24:48.992Z,63.70
2022-09-07T13:27:59.638Z,63.10
2022-09-07T13:31:27.486Z,63.30
2022-09-07T13:34:42.779Z,62.90
2022-09-07T13:37:53.741Z,63.00
2022-09-07T13:41:06.159Z,62.80
2022-09-07T13:44:25.820Z,62.80
2022-09-07T13:47:48.053Z,62.80
2022-09-07T13:51:01.748Z,62.80
2022-09-07T13:54:13.439Z,62.80
2022-09-07T13:57:28.354Z,62.80
2022-09-07T14:00:36.556Z,62.70
2022-09-07T14:03:50.437Z,62.60
2022-09-07T14:07:06.674Z,62.30
2022-09-07T14:10:19.386Z,62.10
2022-09-07T14:13:24.279Z,62.10
2022-09-07T14:16:31.848Z,62.10
2022-09-07T14:19:40.979Z,62.20
2022-09-07T14:22:52.061Z,62.40
2022-09-07T14:26:18.062Z,62.50
2022-09-07T14:29:30.094Z,62.50
2022-09-07T14:32:37.632Z,62.60
2022-09-07T14:35:44.090Z,62.60
2022-09-07T14:39:05.413Z,62.70
2022-09-07T14:42:13.462Z,62.70
2022-09-07T14:45:32.563Z,62.70
2022-09-07T14:48:41.954Z,62.70
2022-09-07T14:51:48.483Z,62.80
2022-09-07T14:54:54.937Z,62.80
2022-09-07T14:58:25.541Z,62.90
2022-09-07T15:01:38.290Z,63.00
2022-09-07T15:04:46.465Z,63.00
2022-09-07T15:07:53.365Z,63.10
2022-09-07T15:14:29.814Z,63.10
2022-09-07T15:17:43.255Z,63.10
2022-09-07T15:20:51.286Z,63.70
2022-09-07T15:23:58.625Z,63.40
2022-09-07T15:27:03.979Z,63.00
2022-09-07T15:30:12.321Z,63.00
2022-09-07T15:33:17.237Z,63.10
2022-09-07T15:36:24.874Z,63.10
2022-09-07T15:39:31.366Z,63.00
2022-09-07T15:46:03.518Z,63.10
2022-09-07T15:49:08.726Z,63.10
2022-09-07T15:52:16.189Z,63.20
2022-09-07T15:55:21.093Z,63.20
2022-09-07T15:58:26.041Z,63.10
2022-09-07T16:04:55.877Z,63.20
2022-09-07T16:11:29.962Z,63.30
2022-09-07T16:14:35.264Z,63.30
2022-09-07T16:17:47.228Z,63.40
2022-09-07T16:20:53.249Z,63.40
2022-09-07T16:24:00.830Z,63.40
2022-09-07T16:27:06.230Z,63.50
2022-09-07T16:30:13.495Z,63.50
2022-09-07T16:33:18.494Z,63.60
2022-09-07T16:36:24.557Z,63.70
2022-09-07T16:39:32.166Z,63.70
2022-09-07T16:42:37.701Z,63.70
2022-09-07T16:49:08.604Z,63.80
2022-09-07T16:52:13.466Z,63.80
2022-09-07T16:55:21.083Z,63.80
2022-09-07T16:58:41.242Z,63.90
2022-09-07T17:01:46.169Z,63.90
2022-09-07T17:04:51.872Z,63.90
2022-09-07T17:07:57.893Z,63.90
2022-09-07T17:11:07.216Z,63.90
2022-09-07T17:14:13.478Z,63.90
2022-09-07T17:17:20.105Z,64.00
2022-09-07T17:20:25.288Z,64.00
2022-09-07T17:23:30.682Z,64.10
2022-09-07T17:26:38.522Z,64.20
2022-09-07T17:29:43.388Z,64.20
2022-09-07T17:32:48.298Z,64.10
2022-09-07T17:35:55.414Z,64.10
2022-09-07T17:39:18.028Z,64.20
2022-09-07T17:43:38.753Z,64.20
2022-09-07T17:45:53.209Z,64.30
2022-09-07T17:49:00.883Z,64.40
2022-09-07T17:52:06.394Z,64.50
2022-09-07T17:55:11.473Z,64.50
2022-09-07T17:58:18.914Z,64.60
2022-09-07T18:01:24.823Z,64.70
2022-09-07T18:04:29.944Z,64.70
2022-09-07T18:07:35.150Z,64.80
2022-09-07T18:14:08.330Z,64.90
2022-09-07T18:17:13.300Z,65.00
2022-09-07T18:20:19.195Z,65.10
2022-09-07T18:23:24.314Z,65.20
2022-09-07T18:26:29.773Z,65.20
2022-09-07T18:29:37.351Z,65.40
2022-09-07T18:32:42.425Z,65.40
2022-09-07T18:35:48.437Z,65.30
2022-09-07T18:38:54.049Z,65.40
2022-09-07T18:41:59.227Z,65.40
2022-09-07T18:48:32.709Z,65.60
2022-09-07T18:55:02.534Z,65.60
2022-09-07T18:58:07.385Z,65.80
2022-09-07T19:01:16.645Z,65.80
2022-09-07T19:04:22.025Z,66.00
2022-09-07T19:07:29.872Z,65.90
2022-09-07T19:10:38.625Z,66.00
2022-09-07T19:13:43.717Z,66.10
2022-09-07T19:16:51.717Z,66.10
2022-09-07T19:19:56.611Z,66.20
2022-09-07T19:23:01.530Z,66.20
2022-09-07T19:26:08.575Z,66.30
2022-09-07T19:29:16.906Z,66.40
2022-09-07T19:32:25.576Z,66.50
2022-09-07T19:35:30.942Z,66.60
2022-09-07T19:38:36.215Z,66.60
2022-09-07T19:41:45.075Z,66.70
2022-09-07T19:44:49.933Z,66.70
2022-09-07T19:47:57.386Z,66.80
2022-09-07T19:51:06.912Z,66.90
2022-09-07T19:54:12.793Z,67.10
2022-09-07T19:57:17.898Z,67.00
2022-09-07T20:00:24.698Z,67.10
2022-09-07T20:03:32.392Z,67.30
2022-09-07T20:06:39.794Z,67.40
2022-09-07T20:09:44.779Z,67.50
2022-09-07T20:12:49.742Z,67.50
2022-09-07T20:15:55.308Z,67.50
2022-09-07T20:19:03.423Z,67.70
2022-09-07T20:22:08.453Z,67.80
2022-09-07T20:25:13.534Z,67.80
2022-09-07T20:28:18.460Z,67.90
2022-09-07T20:31:23.540Z,68.00
2022-09-07T20:34:32.208Z,68.10
2022-09-07T20:37:37.193Z,68.20
2022-09-07T20:40:42.181Z,68.30
2022-09-07T20:43:47.075Z,68.30
2022-09-07T20:46:52.138Z,68.50
2022-09-07T20:49:59.678Z,68.60
2022-09-07T20:53:04.754Z,68.60
2022-09-07T20:56:13.322Z,68.60
2022-09-07T20:59:18.258Z,68.80
2022-09-07T21:02:23.242Z,68.80
2022-09-07T21:05:30.858Z,68.90
2022-09-07T21:08:38.322Z,69.70
2022-09-07T21:11:46.153Z,69.00
2022-09-07T21:14:53.970Z,69.10
2022-09-07T21:17:58.858Z,69.20
2022-09-07T21:21:22.144Z,69.20
2022-09-07T21:24:27.334Z,69.40
2022-09-07T21:27:38.761Z,69.40
2022-09-07T21:30:43.920Z,69.50
2022-09-07T21:33:48.851Z,69.60
2022-09-07T21:36:56.474Z,69.70
2022-09-07T21:40:03.165Z,69.70
2022-09-07T21:43:08.345Z,69.80
2022-09-07T21:46:16.029Z,69.90
2022-09-07T21:49:20.957Z,70.00
2022-09-07T21:52:28.534Z,70.00
2022-09-07T21:55:33.977Z,70.10
2022-09-07T21:58:39.925Z,70.20
2022-09-07T22:01:44.833Z,70.20
2022-09-07T22:04:49.823Z,70.30
2022-09-07T22:07:57.259Z,70.30
2022-09-07T22:11:07.752Z,70.50
2022-09-07T22:14:15.756Z,70.60
2022-09-07T22:17:20.657Z,70.60
2022-09-07T22:20:25.530Z,70.60
2022-09-07T22:23:35.165Z,70.70
2022-09-07T22:26:40.941Z,70.90
2022-09-07T22:29:45.804Z,70.80
2022-09-07T22:32:51.514Z,70.90
2022-09-07T22:35:56.354Z,70.90
2022-09-07T22:39:06.265Z,71.00
2022-09-07T22:42:11.146Z,71.10
2022-09-07T22:45:16.014Z,71.10
2022-09-07T22:48:20.922Z,71.20
2022-09-07T22:51:26.765Z,71.30
2022-09-07T22:54:34.321Z,71.30
2022-09-07T22:57:39.201Z,71.40
2022-09-07T23:00:44.686Z,71.40
2022-09-07T23:03:49.949Z,71.40
2022-09-07T23:06:54.954Z,71.50
2022-09-07T23:10:02.431Z,71.50
2022-09-07T23:13:09.021Z,71.60
2022-09-07T23:16:14.029Z,71.60
2022-09-07T23:19:20.580Z,71.70
2022-09-07T23:22:25.429Z,71.80
2022-09-07T23:25:32.953Z,71.90
2022-09-07T23:28:38.085Z,71.90
2022-09-07T23:31:43.321Z,72.00
2022-09-07T23:34:48.624Z,72.10
2022-09-07T23:37:53.878Z,72.30
2022-09-07T23:41:02.370Z,72.30
2022-09-07T23:44:07.601Z,72.40
2022-09-07T23:47:12.516Z,72.40
2022-09-07T23:50:17.415Z,72.40
2022-09-07T23:53:23.481Z,72.40
2022-09-07T23:56:31.206Z,72.50
2022-09-07T23:59:36.687Z,72.50
